sensor_id;sensor_type;location;lat;lon;timestamp;P1;durP1;ratioP1;P2;durP2;ratioP2
53010;SDS011;42803;55.762;38.084;2022-09-24T00:02:05;9.52;;;5.32;;
53010;SDS011;42803;55.762;38.084;2022-09-24T00:04:38;6.55;;;4.10;;
53010;SDS011;42803;55.762;38.084;2022-09-24T00:07:09;6.20;;;3.80;;
53010;SDS011;42803;55.762;38.084;2022-09-24T00:09:39;6.88;;;3.60;;
53010;SDS011;42803;55.762;38.084;2022-09-24T00:12:09;11.52;;;4.65;;
53010;SDS011;42803;55.762;38.084;2022-09-24T00:14:40;5.97;;;3.95;;
53010;SDS011;42803;55.762;38.084;2022-09-24T00:17:12;7.28;;;4.00;;
53010;SDS011;42803;55.762;38.084;2022-09-24T00:19:43;7.93;;;4.15;;
53010;SDS011;42803;55.762;38.084;2022-09-24T00:22:14;8.48;;;3.90;;
53010;SDS011;42803;55.762;38.084;2022-09-24T00:24:43;6.15;;;3.10;;
53010;SDS011;42803;55.762;38.084;2022-09-24T00:27:30;7.00;;;4.00;;
53010;SDS011;42803;55.762;38.084;2022-09-24T00:30:00;6.10;;;4.30;;
53010;SDS011;42803;55.762;38.084;2022-09-24T00:32:29;7.97;;;4.22;;
53010;SDS011;42803;55.762;38.084;2022-09-24T00:34:59;8.45;;;4.32;;
53010;SDS011;42803;55.762;38.084;2022-09-24T00:37:31;8.05;;;4.15;;
53010;SDS011;42803;55.762;38.084;2022-09-24T00:40:03;7.40;;;5.18;;
53010;SDS011;42803;55.762;38.084;2022-09-24T00:42:34;7.03;;;4.15;;
53010;SDS011;42803;55.762;38.084;2022-09-24T00:45:07;9.20;;;5.00;;
53010;SDS011;42803;55.762;38.084;2022-09-24T00:47:39;6.60;;;4.30;;
53010;SDS011;42803;55.762;38.084;2022-09-24T00:50:18;7.20;;;3.90;;
53010;SDS011;42803;55.762;38.084;2022-09-24T00:52:54;7.72;;;4.15;;
53010;SDS011;42803;55.762;38.084;2022-09-24T00:55:28;7.00;;;4.07;;
53010;SDS011;42803;55.762;38.084;2022-09-24T00:58:30;10.02;;;4.25;;
53010;SDS011;42803;55.762;38.084;2022-09-24T01:01:27;5.88;;;3.60;;
53010;SDS011;42803;55.762;38.084;2022-09-24T01:03:58;6.13;;;3.90;;
53010;SDS011;42803;55.762;38.084;2022-09-24T01:06:30;7.07;;;3.70;;
53010;SDS011;42803;55.762;38.084;2022-09-24T01:09:06;7.32;;;3.38;;
53010;SDS011;42803;55.762;38.084;2022-09-24T01:11:43;6.85;;;3.97;;
53010;SDS011;42803;55.762;38.084;2022-09-24T01:14:32;6.47;;;3.60;;
53010;SDS011;42803;55.762;38.084;2022-09-24T01:17:21;5.18;;;3.33;;
53010;SDS011;42803;55.762;38.084;2022-09-24T01:20:14;9.00;;;4.78;;
53010;SDS011;42803;55.762;38.084;2022-09-24T01:23:13;5.47;;;3.85;;
53010;SDS011;42803;55.762;38.084;2022-09-24T01:26:09;6.38;;;4.28;;
53010;SDS011;42803;55.762;38.084;2022-09-24T01:28:52;8.48;;;4.53;;
53010;SDS011;42803;55.762;38.084;2022-09-24T01:31:37;6.78;;;4.50;;
53010;SDS011;42803;55.762;38.084;2022-09-24T01:34:16;6.25;;;4.03;;
53010;SDS011;42803;55.762;38.084;2022-09-24T01:36:54;8.98;;;4.72;;
53010;SDS011;42803;55.762;38.084;2022-09-24T01:39:27;7.03;;;4.32;;
53010;SDS011;42803;55.762;38.084;2022-09-24T01:42:01;6.35;;;4.43;;
53010;SDS011;42803;55.762;38.084;2022-09-24T01:44:31;7.68;;;3.72;;
53010;SDS011;42803;55.762;38.084;2022-09-24T01:47:07;8.07;;;3.83;;
53010;SDS011;42803;55.762;38.084;2022-09-24T01:49:46;5.97;;;3.65;;
53010;SDS011;42803;55.762;38.084;2022-09-24T01:52:27;4.72;;;3.20;;
53010;SDS011;42803;55.762;38.084;2022-09-24T01:58:34;4.13;;;3.33;;
53010;SDS011;42803;55.762;38.084;2022-09-24T02:04:15;4.38;;;2.85;;
53010;SDS011;42803;55.762;38.084;2022-09-24T02:06:52;9.40;;;2.90;;
53010;SDS011;42803;55.762;38.084;2022-09-24T02:09:30;4.28;;;2.83;;
53010;SDS011;42803;55.762;38.084;2022-09-24T02:12:03;4.18;;;2.20;;
53010;SDS011;42803;55.762;38.084;2022-09-24T02:14:41;6.07;;;2.58;;
53010;SDS011;42803;55.762;38.084;2022-09-24T02:17:13;3.33;;;2.63;;
53010;SDS011;42803;55.762;38.084;2022-09-24T02:19:46;4.22;;;2.78;;
53010;SDS011;42803;55.762;38.084;2022-09-24T02:22:19;4.05;;;1.90;;
53010;SDS011;42803;55.762;38.084;2022-09-24T02:24:54;3.92;;;2.55;;
53010;SDS011;42803;55.762;38.084;2022-09-24T02:27:29;4.38;;;1.90;;
53010;SDS011;42803;55.762;38.084;2022-09-24T02:30:01;3.15;;;1.90;;
53010;SDS011;42803;55.762;38.084;2022-09-24T02:32:33;3.20;;;2.35;;
53010;SDS011;42803;55.762;38.084;2022-09-24T02:35:11;3.03;;;2.28;;
53010;SDS011;42803;55.762;38.084;2022-09-24T02:37:43;2.90;;;2.17;;
53010;SDS011;42803;55.762;38.084;2022-09-24T02:40:15;2.53;;;1.88;;
53010;SDS011;42803;55.762;38.084;2022-09-24T02:48:30;3.25;;;1.70;;
53010;SDS011;42803;55.762;38.084;2022-09-24T02:51:03;2.15;;;1.77;;
53010;SDS011;42803;55.762;38.084;2022-09-24T02:53:33;2.75;;;1.80;;
53010;SDS011;42803;55.762;38.084;2022-09-24T02:56:09;2.15;;;1.77;;
53010;SDS011;42803;55.762;38.084;2022-09-24T02:58:39;5.03;;;1.83;;
53010;SDS011;42803;55.762;38.084;2022-09-24T03:01:12;2.28;;;1.70;;
53010;SDS011;42803;55.762;38.084;2022-09-24T03:03:41;2.83;;;1.90;;
53010;SDS011;42803;55.762;38.084;2022-09-24T03:06:19;2.60;;;1.55;;
53010;SDS011;42803;55.762;38.084;2022-09-24T03:08:51;5.70;;;1.70;;
53010;SDS011;42803;55.762;38.084;2022-09-24T03:11:21;2.13;;;1.50;;
53010;SDS011;42803;55.762;38.084;2022-09-24T03:13:54;3.28;;;1.70;;
53010;SDS011;42803;55.762;38.084;2022-09-24T03:16:34;3.10;;;1.90;;
53010;SDS011;42803;55.762;38.084;2022-09-24T03:19:12;4.38;;;1.83;;
53010;SDS011;42803;55.762;38.084;2022-09-24T03:21:46;3.00;;;1.70;;
53010;SDS011;42803;55.762;38.084;2022-09-24T03:24:21;2.05;;;1.60;;
53010;SDS011;42803;55.762;38.084;2022-09-24T03:26:54;3.05;;;1.90;;
53010;SDS011;42803;55.762;38.084;2022-09-24T03:29:35;2.08;;;1.60;;
53010;SDS011;42803;55.762;38.084;2022-09-24T03:32:25;1.92;;;1.33;;
53010;SDS011;42803;55.762;38.084;2022-09-24T03:35:03;2.65;;;1.50;;
53010;SDS011;42803;55.762;38.084;2022-09-24T03:37:46;1.92;;;1.60;;
53010;SDS011;42803;55.762;38.084;2022-09-24T03:40:31;1.60;;;1.50;;
53010;SDS011;42803;55.762;38.084;2022-09-24T03:43:18;1.75;;;1.35;;
53010;SDS011;42803;55.762;38.084;2022-09-24T03:45:56;1.40;;;1.30;;
53010;SDS011;42803;55.762;38.084;2022-09-24T03:48:32;2.67;;;1.60;;
53010;SDS011;42803;55.762;38.084;2022-09-24T03:51:12;2.05;;;1.80;;
53010;SDS011;42803;55.762;38.084;2022-09-24T03:53:50;1.33;;;1.00;;
53010;SDS011;42803;55.762;38.084;2022-09-24T03:56:46;2.17;;;1.35;;
53010;SDS011;42803;55.762;38.084;2022-09-24T03:59:30;1.52;;;1.42;;
53010;SDS011;42803;55.762;38.084;2022-09-24T04:02:21;1.60;;;1.48;;
53010;SDS011;42803;55.762;38.084;2022-09-24T04:05:00;2.63;;;1.40;;
53010;SDS011;42803;55.762;38.084;2022-09-24T04:08:22;1.67;;;0.95;;
53010;SDS011;42803;55.762;38.084;2022-09-24T04:11:02;2.50;;;1.10;;
53010;SDS011;42803;55.762;38.084;2022-09-24T04:13:45;1.98;;;1.20;;
53010;SDS011;42803;55.762;38.084;2022-09-24T04:16:19;1.30;;;1.05;;
53010;SDS011;42803;55.762;38.084;2022-09-24T04:19:54;1.73;;;1.33;;
53010;SDS011;42803;55.762;38.084;2022-09-24T04:23:05;1.65;;;1.30;;
53010;SDS011;42803;55.762;38.084;2022-09-24T04:25:59;2.75;;;1.23;;
53010;SDS011;42803;55.762;38.084;2022-09-24T04:28:57;1.35;;;1.25;;
53010;SDS011;42803;55.762;38.084;2022-09-24T04:32:07;1.65;;;1.40;;
53010;SDS011;42803;55.762;38.084;2022-09-24T04:35:21;2.10;;;1.50;;
53010;SDS011;42803;55.762;38.084;2022-09-24T04:38:37;3.03;;;1.58;;
53010;SDS011;42803;55.762;38.084;2022-09-24T04:42:34;1.67;;;1.23;;
53010;SDS011;42803;55.762;38.084;2022-09-24T04:45:15;1.77;;;1.35;;
53010;SDS011;42803;55.762;38.084;2022-09-24T04:47:50;1.90;;;1.20;;
53010;SDS011;42803;55.762;38.084;2022-09-24T04:53:57;2.35;;;1.30;;
53010;SDS011;42803;55.762;38.084;2022-09-24T04:56:36;1.13;;;1.02;;
53010;SDS011;42803;55.762;38.084;2022-09-24T04:59:17;1.55;;;1.23;;
53010;SDS011;42803;55.762;38.084;2022-09-24T05:02:00;1.10;;;0.98;;
53010;SDS011;42803;55.762;38.084;2022-09-24T05:04:46;2.80;;;1.38;;
53010;SDS011;42803;55.762;38.084;2022-09-24T05:07:53;1.48;;;1.20;;
53010;SDS011;42803;55.762;38.084;2022-09-24T05:10:29;1.13;;;1.08;;
53010;SDS011;42803;55.762;38.084;2022-09-24T05:13:31;1.35;;;1.20;;
53010;SDS011;42803;55.762;38.084;2022-09-24T05:16:33;1.25;;;1.15;;
53010;SDS011;42803;55.762;38.084;2022-09-24T05:19:12;5.68;;;1.00;;
53010;SDS011;42803;55.762;38.084;2022-09-24T05:21:45;1.17;;;0.90;;
53010;SDS011;42803;55.762;38.084;2022-09-24T05:24:15;3.03;;;1.23;;
53010;SDS011;42803;55.762;38.084;2022-09-24T05:26:47;1.30;;;1.10;;
53010;SDS011;42803;55.762;38.084;2022-09-24T05:29:42;1.33;;;1.05;;
53010;SDS011;42803;55.762;38.084;2022-09-24T05:32:17;2.05;;;1.00;;
53010;SDS011;42803;55.762;38.084;2022-09-24T05:34:50;0.77;;;0.73;;
53010;SDS011;42803;55.762;38.084;2022-09-24T05:37:24;0.80;;;0.80;;
53010;SDS011;42803;55.762;38.084;2022-09-24T05:39:55;0.98;;;0.90;;
53010;SDS011;42803;55.762;38.084;2022-09-24T05:42:48;1.00;;;1.00;;
53010;SDS011;42803;55.762;38.084;2022-09-24T05:45:18;1.27;;;0.82;;
53010;SDS011;42803;55.762;38.084;2022-09-24T05:47:50;1.00;;;0.90;;
53010;SDS011;42803;55.762;38.084;2022-09-24T05:51:53;0.70;;;0.70;;
53010;SDS011;42803;55.762;38.084;2022-09-24T05:54:25;1.95;;;0.90;;
53010;SDS011;42803;55.762;38.084;2022-09-24T05:57:08;2.97;;;0.75;;
53010;SDS011;42803;55.762;38.084;2022-09-24T05:59:43;0.98;;;0.80;;
53010;SDS011;42803;55.762;38.084;2022-09-24T06:02:19;1.27;;;1.05;;
53010;SDS011;42803;55.762;38.084;2022-09-24T06:04:54;1.33;;;0.80;;
53010;SDS011;42803;55.762;38.084;2022-09-24T06:07:27;0.82;;;0.82;;
53010;SDS011;42803;55.762;38.084;2022-09-24T06:10:01;0.80;;;0.77;;
53010;SDS011;42803;55.762;38.084;2022-09-24T06:12:44;1.17;;;0.90;;
53010;SDS011;42803;55.762;38.084;2022-09-24T06:18:16;1.02;;;0.80;;
53010;SDS011;42803;55.762;38.084;2022-09-24T06:20:52;1.05;;;0.70;;
53010;SDS011;42803;55.762;38.084;2022-09-24T06:23:25;0.60;;;0.60;;
53010;SDS011;42803;55.762;38.084;2022-09-24T06:26:01;0.73;;;0.60;;
53010;SDS011;42803;55.762;38.084;2022-09-24T06:28:35;0.93;;;0.70;;
53010;SDS011;42803;55.762;38.084;2022-09-24T06:31:17;0.90;;;0.80;;
53010;SDS011;42803;55.762;38.084;2022-09-24T06:33:48;0.85;;;0.70;;
53010;SDS011;42803;55.762;38.084;2022-09-24T06:36:26;1.83;;;0.80;;
53010;SDS011;42803;55.762;38.084;2022-09-24T06:38:56;3.22;;;0.90;;
53010;SDS011;42803;55.762;38.084;2022-09-24T06:41:30;1.88;;;1.23;;
53010;SDS011;42803;55.762;38.084;2022-09-24T06:44:00;1.00;;;0.90;;
53010;SDS011;42803;55.762;38.084;2022-09-24T06:46:30;1.42;;;0.95;;
53010;SDS011;42803;55.762;38.084;2022-09-24T06:49:07;0.98;;;0.93;;
53010;SDS011;42803;55.762;38.084;2022-09-24T06:51:48;1.20;;;0.93;;
53010;SDS011;42803;55.762;38.084;2022-09-24T06:54:20;0.60;;;0.60;;
53010;SDS011;42803;55.762;38.084;2022-09-24T06:56:53;1.25;;;0.80;;
53010;SDS011;42803;55.762;38.084;2022-09-24T06:59:29;0.88;;;0.88;;
53010;SDS011;42803;55.762;38.084;2022-09-24T07:02:01;1.40;;;0.90;;
53010;SDS011;42803;55.762;38.084;2022-09-24T07:04:36;1.75;;;0.70;;
53010;SDS011;42803;55.762;38.084;2022-09-24T07:07:11;1.80;;;0.82;;
53010;SDS011;42803;55.762;38.084;2022-09-24T07:10:02;0.55;;;0.55;;
53010;SDS011;42803;55.762;38.084;2022-09-24T07:12:39;1.30;;;0.90;;
53010;SDS011;42803;55.762;38.084;2022-09-24T07:15:26;2.75;;;0.68;;
53010;SDS011;42803;55.762;38.084;2022-09-24T07:18:29;1.95;;;1.30;;
53010;SDS011;42803;55.762;38.084;2022-09-24T07:21:38;2.70;;;0.90;;
53010;SDS011;42803;55.762;38.084;2022-09-24T07:29:15;0.70;;;0.70;;
53010;SDS011;42803;55.762;38.084;2022-09-24T07:32:01;1.20;;;0.93;;
53010;SDS011;42803;55.762;38.084;2022-09-24T07:38:01;0.50;;;0.50;;
53010;SDS011;42803;55.762;38.084;2022-09-24T07:40:49;1.45;;;0.90;;
53010;SDS011;42803;55.762;38.084;2022-09-24T07:47:00;0.65;;;0.65;;
53010;SDS011;42803;55.762;38.084;2022-09-24T07:50:16;1.13;;;0.70;;
53010;SDS011;42803;55.762;38.084;2022-09-24T07:53:38;1.48;;;0.60;;
53010;SDS011;42803;55.762;38.084;2022-09-24T07:56:58;0.60;;;0.60;;
53010;SDS011;42803;55.762;38.084;2022-09-24T07:59:52;0.70;;;0.70;;
53010;SDS011;42803;55.762;38.084;2022-09-24T08:02:49;1.02;;;0.68;;
53010;SDS011;42803;55.762;38.084;2022-09-24T08:05:22;3.38;;;0.98;;
53010;SDS011;42803;55.762;38.084;2022-09-24T08:07:56;2.50;;;0.98;;
53010;SDS011;42803;55.762;38.084;2022-09-24T08:10:28;0.57;;;0.50;;
53010;SDS011;42803;55.762;38.084;2022-09-24T08:14:03;1.08;;;0.70;;
53010;SDS011;42803;55.762;38.084;2022-09-24T08:16:39;1.02;;;0.90;;
53010;SDS011;42803;55.762;38.084;2022-09-24T08:19:21;1.08;;;0.90;;
53010;SDS011;42803;55.762;38.084;2022-09-24T08:21:56;1.20;;;1.10;;
53010;SDS011;42803;55.762;38.084;2022-09-24T08:24:40;0.98;;;0.77;;
53010;SDS011;42803;55.762;38.084;2022-09-24T08:27:26;0.90;;;0.90;;
53010;SDS011;42803;55.762;38.084;2022-09-24T08:30:04;1.25;;;0.85;;
53010;SDS011;42803;55.762;38.084;2022-09-24T08:33:02;1.42;;;0.93;;
53010;SDS011;42803;55.762;38.084;2022-09-24T08:35:44;1.05;;;0.95;;
53010;SDS011;42803;55.762;38.084;2022-09-24T08:38:17;2.08;;;1.13;;
53010;SDS011;42803;55.762;38.084;2022-09-24T08:40:51;1.42;;;1.08;;
53010;SDS011;42803;55.762;38.084;2022-09-24T08:43:35;2.10;;;1.63;;
53010;SDS011;42803;55.762;38.084;2022-09-24T08:46:23;1.40;;;1.00;;
53010;SDS011;42803;55.762;38.084;2022-09-24T08:49:29;1.30;;;0.98;;
53010;SDS011;42803;55.762;38.084;2022-09-24T08:52:30;4.40;;;1.30;;
53010;SDS011;42803;55.762;38.084;2022-09-24T08:55:23;2.65;;;1.20;;
53010;SDS011;42803;55.762;38.084;2022-09-24T08:58:07;1.95;;;1.42;;
53010;SDS011;42803;55.762;38.084;2022-09-24T09:00:54;1.27;;;1.13;;
53010;SDS011;42803;55.762;38.084;2022-09-24T09:03:29;1.10;;;1.00;;
53010;SDS011;42803;55.762;38.084;2022-09-24T09:06:04;1.55;;;0.98;;
53010;SDS011;42803;55.762;38.084;2022-09-24T09:08:51;1.00;;;0.90;;
53010;SDS011;42803;55.762;38.084;2022-09-24T09:11:34;1.20;;;0.88;;
53010;SDS011;42803;55.762;38.084;2022-09-24T09:14:08;1.77;;;1.08;;
53010;SDS011;42803;55.762;38.084;2022-09-24T09:16:48;0.98;;;0.88;;
53010;SDS011;42803;55.762;38.084;2022-09-24T09:19:22;0.82;;;0.82;;
53010;SDS011;42803;55.762;38.084;2022-09-24T09:21:58;0.80;;;0.80;;
53010;SDS011;42803;55.762;38.084;2022-09-24T09:24:38;1.10;;;1.00;;
53010;SDS011;42803;55.762;38.084;2022-09-24T09:27:19;1.10;;;0.93;;
53010;SDS011;42803;55.762;38.084;2022-09-24T09:29:49;1.35;;;0.80;;
53010;SDS011;42803;55.762;38.084;2022-09-24T09:32:25;0.80;;;0.77;;
53010;SDS011;42803;55.762;38.084;2022-09-24T09:35:10;1.30;;;0.98;;
53010;SDS011;42803;55.762;38.084;2022-09-24T09:38:00;1.10;;;1.00;;
53010;SDS011;42803;55.762;38.084;2022-09-24T09:41:02;1.60;;;1.10;;
53010;SDS011;42803;55.762;38.084;2022-09-24T09:44:07;1.45;;;1.30;;
53010;SDS011;42803;55.762;38.084;2022-09-24T09:46:52;1.20;;;1.00;;
53010;SDS011;42803;55.762;38.084;2022-09-24T09:49:30;1.25;;;1.10;;
53010;SDS011;42803;55.762;38.084;2022-09-24T09:52:08;1.25;;;1.10;;
53010;SDS011;42803;55.762;38.084;2022-09-24T09:54:43;1.48;;;1.00;;
53010;SDS011;42803;55.762;38.084;2022-09-24T09:57:15;3.08;;;1.88;;
53010;SDS011;42803;55.762;38.084;2022-09-24T09:59:52;1.00;;;0.85;;
53010;SDS011;42803;55.762;38.084;2022-09-24T10:02:26;1.60;;;1.05;;
53010;SDS011;42803;55.762;38.084;2022-09-24T10:05:00;3.65;;;1.10;;
53010;SDS011;42803;55.762;38.084;2022-09-24T10:07:42;0.70;;;0.70;;
53010;SDS011;42803;55.762;38.084;2022-09-24T10:10:18;0.82;;;0.80;;
53010;SDS011;42803;55.762;38.084;2022-09-24T10:12:52;0.88;;;0.80;;
53010;SDS011;42803;55.762;38.084;2022-09-24T10:15:23;1.00;;;0.80;;
53010;SDS011;42803;55.762;38.084;2022-09-24T10:17:57;1.45;;;0.90;;
53010;SDS011;42803;55.762;38.084;2022-09-24T10:20:33;1.95;;;0.80;;
53010;SDS011;42803;55.762;38.084;2022-09-24T10:23:05;1.90;;;0.90;;
53010;SDS011;42803;55.762;38.084;2022-09-24T10:25:47;1.85;;;1.65;;
53010;SDS011;42803;55.762;38.084;2022-09-24T10:28:27;1.00;;;0.90;;
53010;SDS011;42803;55.762;38.084;2022-09-24T10:31:27;1.67;;;1.10;;
53010;SDS011;42803;55.762;38.084;2022-09-24T10:34:00;1.07;;;0.97;;
53010;SDS011;42803;55.762;38.084;2022-09-24T10:36:31;1.10;;;1.00;;
53010;SDS011;42803;55.762;38.084;2022-09-24T10:39:01;2.15;;;1.20;;
53010;SDS011;42803;55.762;38.084;2022-09-24T10:41:34;1.40;;;1.00;;
53010;SDS011;42803;55.762;38.084;2022-09-24T10:44:08;1.60;;;1.00;;
53010;SDS011;42803;55.762;38.084;2022-09-24T10:46:46;1.13;;;0.98;;
53010;SDS011;42803;55.762;38.084;2022-09-24T10:49:32;2.22;;;1.23;;
53010;SDS011;42803;55.762;38.084;2022-09-24T10:52:11;1.35;;;1.23;;
53010;SDS011;42803;55.762;38.084;2022-09-24T10:54:55;3.45;;;1.00;;
53010;SDS011;42803;55.762;38.084;2022-09-24T10:57:36;1.10;;;0.98;;
53010;SDS011;42803;55.762;38.084;2022-09-24T11:00:20;2.33;;;1.00;;
53010;SDS011;42803;55.762;38.084;2022-09-24T11:02:55;2.10;;;1.20;;
53010;SDS011;42803;55.762;38.084;2022-09-24T11:05:48;2.08;;;1.20;;
53010;SDS011;42803;55.762;38.084;2022-09-24T11:08:27;2.22;;;1.30;;
53010;SDS011;42803;55.762;38.084;2022-09-24T11:11:17;0.82;;;0.77;;
53010;SDS011;42803;55.762;38.084;2022-09-24T11:14:02;1.13;;;0.95;;
53010;SDS011;42803;55.762;38.084;2022-09-24T11:16:47;1.65;;;0.90;;
53010;SDS011;42803;55.762;38.084;2022-09-24T11:19:44;1.58;;;0.90;;
53010;SDS011;42803;55.762;38.084;2022-09-24T11:22:32;1.02;;;0.93;;
53010;SDS011;42803;55.762;38.084;2022-09-24T11:25:23;0.85;;;0.80;;
53010;SDS011;42803;55.762;38.084;2022-09-24T11:28:04;1.20;;;0.90;;
53010;SDS011;42803;55.762;38.084;2022-09-24T11:30:56;1.35;;;0.88;;
53010;SDS011;42803;55.762;38.084;2022-09-24T11:33:44;1.50;;;1.10;;
53010;SDS011;42803;55.762;38.084;2022-09-24T11:36:37;2.42;;;1.20;;
53010;SDS011;42803;55.762;38.084;2022-09-24T11:39:23;1.77;;;1.35;;
53010;SDS011;42803;55.762;38.084;2022-09-24T11:42:06;1.27;;;1.17;;
53010;SDS011;42803;55.762;38.084;2022-09-24T11:44:58;1.67;;;0.98;;
53010;SDS011;42803;55.762;38.084;2022-09-24T11:47:47;1.45;;;1.10;;
53010;SDS011;42803;55.762;38.084;2022-09-24T11:50:34;1.40;;;1.25;;
53010;SDS011;42803;55.762;38.084;2022-09-24T11:53:16;2.30;;;1.00;;
53010;SDS011;42803;55.762;38.084;2022-09-24T11:55:53;1.10;;;1.00;;
53010;SDS011;42803;55.762;38.084;2022-09-24T11:58:28;1.25;;;0.70;;
53010;SDS011;42803;55.762;38.084;2022-09-24T12:01:03;1.00;;;0.90;;
53010;SDS011;42803;55.762;38.084;2022-09-24T12:03:41;1.27;;;1.10;;
53010;SDS011;42803;55.762;38.084;2022-09-24T12:06:17;1.08;;;0.98;;
53010;SDS011;42803;55.762;38.084;2022-09-24T12:08:53;1.23;;;0.90;;
53010;SDS011;42803;55.762;38.084;2022-09-24T12:11:29;2.38;;;0.98;;
53010;SDS011;42803;55.762;38.084;2022-09-24T12:14:06;1.08;;;0.90;;
53010;SDS011;42803;55.762;38.084;2022-09-24T12:16:58;1.38;;;1.05;;
53010;SDS011;42803;55.762;38.084;2022-09-24T12:19:35;0.93;;;0.80;;
53010;SDS011;42803;55.762;38.084;2022-09-24T12:22:23;1.00;;;0.88;;
53010;SDS011;42803;55.762;38.084;2022-09-24T12:25:01;1.05;;;0.95;;
53010;SDS011;42803;55.762;38.084;2022-09-24T12:27:37;1.10;;;0.85;;
53010;SDS011;42803;55.762;38.084;2022-09-24T12:30:17;0.85;;;0.80;;
53010;SDS011;42803;55.762;38.084;2022-09-24T12:33:21;0.70;;;0.70;;
53010;SDS011;42803;55.762;38.084;2022-09-24T12:36:01;1.15;;;0.80;;
53010;SDS011;42803;55.762;38.084;2022-09-24T12:38:44;0.88;;;0.88;;
53010;SDS011;42803;55.762;38.084;2022-09-24T12:41:37;0.85;;;0.68;;
53010;SDS011;42803;55.762;38.084;2022-09-24T12:44:16;0.75;;;0.73;;
53010;SDS011;42803;55.762;38.084;2022-09-24T12:46:54;1.15;;;0.90;;
53010;SDS011;42803;55.762;38.084;2022-09-24T12:49:28;0.88;;;0.80;;
53010;SDS011;42803;55.762;38.084;2022-09-24T12:52:14;1.00;;;0.90;;
53010;SDS011;42803;55.762;38.084;2022-09-24T12:54:54;1.08;;;0.98;;
53010;SDS011;42803;55.762;38.084;2022-09-24T12:57:31;2.90;;;1.00;;
53010;SDS011;42803;55.762;38.084;2022-09-24T13:00:31;1.58;;;1.15;;
53010;SDS011;42803;55.762;38.084;2022-09-24T13:03:30;1.27;;;1.17;;
53010;SDS011;42803;55.762;38.084;2022-09-24T13:06:22;1.10;;;1.00;;
53010;SDS011;42803;55.762;38.084;2022-09-24T13:09:03;1.30;;;0.88;;
53010;SDS011;42803;55.762;38.084;2022-09-24T13:12:03;0.80;;;0.80;;
53010;SDS011;42803;55.762;38.084;2022-09-24T13:14:51;1.02;;;0.95;;
53010;SDS011;42803;55.762;38.084;2022-09-24T13:17:32;0.90;;;0.90;;
53010;SDS011;42803;55.762;38.084;2022-09-24T13:20:05;1.00;;;0.90;;
53010;SDS011;42803;55.762;38.084;2022-09-24T13:22:53;0.77;;;0.77;;
53010;SDS011;42803;55.762;38.084;2022-09-24T13:25:24;1.90;;;1.10;;
53010;SDS011;42803;55.762;38.084;2022-09-24T13:27:57;2.50;;;0.70;;
53010;SDS011;42803;55.762;38.084;2022-09-24T13:30:35;1.95;;;1.45;;
53010;SDS011;42803;55.762;38.084;2022-09-24T13:33:15;0.75;;;0.65;;
53010;SDS011;42803;55.762;38.084;2022-09-24T13:38:48;0.90;;;0.82;;
53010;SDS011;42803;55.762;38.084;2022-09-24T13:41:28;0.93;;;0.80;;
53010;SDS011;42803;55.762;38.084;2022-09-24T13:44:10;1.30;;;1.00;;
53010;SDS011;42803;55.762;38.084;2022-09-24T13:46:55;1.00;;;0.90;;
53010;SDS011;42803;55.762;38.084;2022-09-24T13:52:06;0.80;;;0.80;;
53010;SDS011;42803;55.762;38.084;2022-09-24T13:54:52;1.42;;;1.00;;
53010;SDS011;42803;55.762;38.084;2022-09-24T13:58:14;0.80;;;0.80;;
53010;SDS011;42803;55.762;38.084;2022-09-24T14:01:03;1.40;;;0.70;;
53010;SDS011;42803;55.762;38.084;2022-09-24T14:03:58;1.15;;;0.80;;
53010;SDS011;42803;55.762;38.084;2022-09-24T14:06:38;1.52;;;0.80;;
53010;SDS011;42803;55.762;38.084;2022-09-24T14:09:15;1.52;;;0.77;;
53010;SDS011;42803;55.762;38.084;2022-09-24T14:12:11;0.82;;;0.82;;
53010;SDS011;42803;55.762;38.084;2022-09-24T14:14:56;1.35;;;0.70;;
53010;SDS011;42803;55.762;38.084;2022-09-24T14:17:32;1.05;;;0.82;;
53010;SDS011;42803;55.762;38.084;2022-09-24T14:20:11;0.70;;;0.70;;
53010;SDS011;42803;55.762;38.084;2022-09-24T14:25:38;1.27;;;0.70;;
53010;SDS011;42803;55.762;38.084;2022-09-24T14:28:22;1.30;;;1.00;;
53010;SDS011;42803;55.762;38.084;2022-09-24T14:30:53;1.33;;;0.98;;
53010;SDS011;42803;55.762;38.084;2022-09-24T14:33:27;1.73;;;0.70;;
53010;SDS011;42803;55.762;38.084;2022-09-24T14:35:59;2.22;;;0.82;;
53010;SDS011;42803;55.762;38.084;2022-09-24T14:38:31;2.92;;;0.93;;
53010;SDS011;42803;55.762;38.084;2022-09-24T14:41:03;0.95;;;0.70;;
53010;SDS011;42803;55.762;38.084;2022-09-24T14:43:38;1.55;;;1.13;;
53010;SDS011;42803;55.762;38.084;2022-09-24T14:46:14;2.40;;;1.42;;
53010;SDS011;42803;55.762;38.084;2022-09-24T14:49:02;0.73;;;0.70;;
53010;SDS011;42803;55.762;38.084;2022-09-24T14:51:34;5.25;;;1.00;;
53010;SDS011;42803;55.762;38.084;2022-09-24T14:54:18;1.17;;;0.95;;
53010;SDS011;42803;55.762;38.084;2022-09-24T14:56:51;2.90;;;1.10;;
53010;SDS011;42803;55.762;38.084;2022-09-24T14:59:27;3.35;;;0.70;;
53010;SDS011;42803;55.762;38.084;2022-09-24T15:02:12;0.95;;;0.85;;
53010;SDS011;42803;55.762;38.084;2022-09-24T15:04:48;1.65;;;0.90;;
53010;SDS011;42803;55.762;38.084;2022-09-24T15:07:21;1.45;;;0.70;;
53010;SDS011;42803;55.762;38.084;2022-09-24T15:09:53;3.53;;;0.85;;
53010;SDS011;42803;55.762;38.084;2022-09-24T15:12:26;1.23;;;0.80;;
53010;SDS011;42803;55.762;38.084;2022-09-24T15:15:02;1.55;;;0.82;;
53010;SDS011;42803;55.762;38.084;2022-09-24T15:17:33;0.68;;;0.68;;
53010;SDS011;42803;55.762;38.084;2022-09-24T15:20:09;1.00;;;0.93;;
53010;SDS011;42803;55.762;38.084;2022-09-24T15:22:43;1.02;;;0.80;;
53010;SDS011;42803;55.762;38.084;2022-09-24T15:25:18;0.80;;;0.75;;
53010;SDS011;42803;55.762;38.084;2022-09-24T15:27:52;1.00;;;0.80;;
53010;SDS011;42803;55.762;38.084;2022-09-24T15:30:24;1.63;;;1.00;;
53010;SDS011;42803;55.762;38.084;2022-09-24T15:32:54;0.80;;;0.80;;
53010;SDS011;42803;55.762;38.084;2022-09-24T15:35:25;1.20;;;0.88;;
53010;SDS011;42803;55.762;38.084;2022-09-24T15:37:55;1.17;;;0.80;;
53010;SDS011;42803;55.762;38.084;2022-09-24T15:40:30;12.32;;;2.97;;
53010;SDS011;42803;55.762;38.084;2022-09-24T15:43:04;9.73;;;2.85;;
53010;SDS011;42803;55.762;38.084;2022-09-24T15:45:41;3.80;;;1.05;;
53010;SDS011;42803;55.762;38.084;2022-09-24T15:48:18;1.40;;;1.00;;
53010;SDS011;42803;55.762;38.084;2022-09-24T15:50:51;0.80;;;0.68;;
53010;SDS011;42803;55.762;38.084;2022-09-24T15:53:24;0.73;;;0.73;;
53010;SDS011;42803;55.762;38.084;2022-09-24T15:56:06;2.35;;;1.20;;
53010;SDS011;42803;55.762;38.084;2022-09-24T15:58:52;1.20;;;0.70;;
53010;SDS011;42803;55.762;38.084;2022-09-24T16:01:22;1.20;;;0.90;;
53010;SDS011;42803;55.762;38.084;2022-09-24T16:03:54;1.02;;;0.98;;
53010;SDS011;42803;55.762;38.084;2022-09-24T16:06:33;2.08;;;1.38;;
53010;SDS011;42803;55.762;38.084;2022-09-24T16:09:23;2.42;;;1.65;;
53010;SDS011;42803;55.762;38.084;2022-09-24T16:20:07;1.35;;;1.20;;
53010;SDS011;42803;55.762;38.084;2022-09-24T16:22:46;2.20;;;1.17;;
53010;SDS011;42803;55.762;38.084;2022-09-24T16:25:28;2.42;;;1.50;;
53010;SDS011;42803;55.762;38.084;2022-09-24T16:28:42;2.28;;;1.10;;
53010;SDS011;42803;55.762;38.084;2022-09-24T16:32:31;0.80;;;0.65;;
53010;SDS011;42803;55.762;38.084;2022-09-24T16:41:15;0.80;;;0.80;;
53010;SDS011;42803;55.762;38.084;2022-09-24T16:44:15;1.35;;;0.65;;
53010;SDS011;42803;55.762;38.084;2022-09-24T16:46:55;0.60;;;0.60;;
53010;SDS011;42803;55.762;38.084;2022-09-24T16:49:34;1.63;;;0.75;;
53010;SDS011;42803;55.762;38.084;2022-09-24T16:52:30;0.63;;;0.50;;